createdAt,value
2023-05-22T00:03:29.412Z,101249.81
2023-05-22T00:07:30.987Z,101248.50
2023-05-22T00:11:34.732Z,101251.78
2023-05-22T00:15:36.157Z,101249.41
2023-05-22T00:19:38.185Z,101243.81
2023-05-22T00:23:39.718Z,101240.56
2023-05-22T00:27:41.206Z,101240.16
2023-05-22T00:31:42.667Z,101227.75
2023-05-22T00:35:44.256Z,101238.22
2023-05-22T00:39:46.318Z,101222.22
2023-05-22T00:43:48.012Z,101227.00
2023-05-22T00:47:50.213Z,101218.97
2023-05-22T00:51:51.780Z,101218.22
2023-05-22T00:55:54.026Z,101214.66
2023-05-22T00:59:56.265Z,101218.59
2023-05-22T01:03:57.879Z,101219.00
2023-05-22T01:07:59.400Z,101214.56
2023-05-22T01:12:19.130Z,101212.22
2023-05-22T01:16:32.133Z,101213.44
2023-05-22T01:20:48.892Z,101211.06
2023-05-22T01:25:21.077Z,101209.03
2023-05-22T01:29:30.869Z,101206.63
2023-05-22T01:33:41.803Z,101205.00
2023-05-22T01:37:45.121Z,101207.84
2023-05-22T01:41:47.209Z,101207.84
2023-05-22T01:45:49.309Z,101201.81
2023-05-22T01:49:51.963Z,101195.41
2023-05-22T01:53:59.136Z,101203.84
2023-05-22T01:58:17.531Z,101201.84
2023-05-22T02:02:21.211Z,101201.03
2023-05-22T02:06:24.987Z,101205.03
2023-05-22T02:10:29.137Z,101204.63
2023-05-22T02:14:31.560Z,101209.44
2023-05-22T02:18:33.619Z,101207.44
2023-05-22T02:22:35.075Z,101209.44
2023-05-22T02:26:37.216Z,101208.63
2023-05-22T02:30:38.938Z,101207.00
2023-05-22T02:34:40.568Z,101204.19
2023-05-22T02:38:42.060Z,101201.38
2023-05-22T02:42:43.493Z,101198.13
2023-05-22T02:46:45.697Z,101202.56
2023-05-22T02:50:48.754Z,101208.50
2023-05-22T02:54:50.265Z,101202.16
2023-05-22T02:58:51.750Z,101197.66
2023-05-22T03:02:53.364Z,101195.63
2023-05-22T03:06:55.384Z,101197.16
2023-05-22T03:10:57.693Z,101194.00
2023-05-22T03:14:59.312Z,101186.31
2023-05-22T03:19:11.007Z,101187.47
2023-05-22T03:23:13.357Z,101183.50
2023-05-22T03:27:17.050Z,101169.03
2023-05-22T03:31:18.576Z,101185.13
2023-05-22T03:35:20.078Z,101179.47
2023-05-22T03:39:21.562Z,101177.09
2023-05-22T03:43:23.029Z,101172.66
2023-05-22T03:47:24.541Z,101178.25
2023-05-22T03:51:26.106Z,101177.13
2023-05-22T03:55:27.584Z,101175.13
2023-05-22T03:59:29.075Z,101181.16
2023-05-22T04:03:30.654Z,101176.75
2023-05-22T04:07:32.579Z,101178.75
2023-05-22T04:11:34.058Z,101183.19
2023-05-22T04:15:36.450Z,101176.34
2023-05-22T04:19:38.018Z,101181.91
2023-05-22T04:23:43.168Z,101183.16
2023-05-22T04:27:44.657Z,101182.34
2023-05-22T04:31:46.253Z,101176.81
2023-05-22T04:35:48.214Z,101179.91
2023-05-22T04:39:52.873Z,101176.72
2023-05-22T04:43:54.716Z,101178.78
2023-05-22T04:47:57.048Z,101182.34
2023-05-22T04:51:58.794Z,101182.00
2023-05-22T04:56:00.827Z,101180.00
2023-05-22T05:00:04.365Z,101176.81
2023-05-22T05:04:06.101Z,101171.66
2023-05-22T05:08:07.810Z,101169.59
2023-05-22T05:12:09.342Z,101176.84
2023-05-22T05:16:11.371Z,101167.63
2023-05-22T05:20:14.504Z,101176.47
2023-05-22T05:24:19.723Z,101174.91
2023-05-22T05:28:21.297Z,101176.94
2023-05-22T05:32:22.888Z,101179.75
2023-05-22T05:36:28.243Z,101180.97
2023-05-22T05:40:29.702Z,101184.16
2023-05-22T05:44:31.291Z,101188.56
2023-05-22T05:48:32.841Z,101185.34
2023-05-22T05:52:34.438Z,101193.38
2023-05-22T05:56:36.389Z,101184.53
2023-05-22T06:00:39.132Z,101178.16
2023-05-22T06:04:42.085Z,101184.59
2023-05-22T06:08:44.189Z,101175.78
2023-05-22T06:12:46.073Z,101178.97
2023-05-22T06:16:47.756Z,101178.59
2023-05-22T06:20:49.325Z,101170.16
2023-05-22T06:24:51.243Z,101174.16
2023-05-22T06:28:54.115Z,101175.75
2023-05-22T06:32:55.723Z,101170.06
2023-05-22T06:36:57.295Z,101178.03
2023-05-22T06:40:58.839Z,101175.28
2023-05-22T06:45:00.316Z,101169.91
2023-05-22T06:49:02.084Z,101179.88
2023-05-22T06:53:03.570Z,101178.63
2023-05-22T06:57:06.984Z,101171.66
2023-05-22T07:01:08.464Z,101173.56
2023-05-22T07:05:09.994Z,101174.69
2023-05-22T07:09:12.207Z,101173.34
2023-05-22T07:13:13.769Z,101176.00
2023-05-22T07:17:15.270Z,101170.50
2023-05-22T07:21:16.858Z,101174.38
2023-05-22T07:25:18.338Z,101168.28
2023-05-22T07:29:21.936Z,101170.28
2023-05-22T07:33:25.772Z,101167.69
2023-05-22T07:37:27.271Z,101172.16
2023-05-22T07:41:28.861Z,101167.34
2023-05-22T07:45:30.803Z,101168.84
2023-05-22T07:49:32.908Z,101175.63
2023-05-22T07:53:35.472Z,101172.34
2023-05-22T07:57:37.012Z,101170.81
2023-05-22T08:01:39.656Z,101165.59
2023-05-22T08:05:41.184Z,101155.00
2023-05-22T08:09:45.973Z,101160.56
2023-05-22T08:13:47.761Z,101162.16
2023-05-22T08:17:49.455Z,101161.84
2023-05-22T08:21:57.879Z,101161.13
2023-05-22T08:25:59.392Z,101159.06
2023-05-22T08:30:02.238Z,101154.22
2023-05-22T08:34:04.862Z,101151.72
2023-05-22T08:38:06.497Z,101147.28
2023-05-22T08:42:08.272Z,101147.28
2023-05-22T08:46:10.490Z,101139.41
2023-05-22T08:50:12.414Z,101141.44
2023-05-22T08:54:18.471Z,101132.84
2023-05-22T08:58:21.837Z,101128.69
2023-05-22T09:02:24.262Z,101122.19
2023-05-22T09:06:26.271Z,101121.69
2023-05-22T09:10:27.761Z,101112.81
2023-05-22T09:14:38.297Z,101112.22
2023-05-22T09:18:41.224Z,101116.44
2023-05-22T09:22:42.711Z,101114.34
2023-05-22T09:26:44.240Z,101111.34
2023-05-22T09:30:49.565Z,101095.63
2023-05-22T09:34:51.389Z,101105.38
2023-05-22T09:38:54.075Z,101102.56
2023-05-22T09:42:55.683Z,101096.84
2023-05-22T09:46:57.352Z,101088.13
2023-05-22T09:51:00.203Z,101097.00
2023-05-22T09:55:09.413Z,101094.31
2023-05-22T09:59:13.742Z,101099.84
2023-05-22T10:03:17.306Z,101090.16
2023-05-22T10:07:30.088Z,101084.72
2023-05-22T10:11:33.375Z,101090.75
2023-05-22T10:15:35.921Z,101083.94
2023-05-22T10:19:40.442Z,101084.63
2023-05-22T10:23:44.229Z,101083.03
2023-05-22T10:27:46.062Z,101086.59
2023-05-22T10:31:53.489Z,101082.88
2023-05-22T10:36:08.630Z,101078.13
2023-05-22T10:40:13.431Z,101076.69
2023-05-22T10:44:14.994Z,101067.34
2023-05-22T10:48:22.143Z,101054.06
2023-05-22T10:52:23.642Z,101058.88
2023-05-22T10:56:32.950Z,101045.94
2023-05-22T11:00:38.001Z,101044.72
2023-05-22T11:04:39.555Z,101054.50
2023-05-22T11:08:41.124Z,101046.28
2023-05-22T11:12:43.977Z,101034.31
2023-05-22T11:16:45.744Z,101031.97
2023-05-22T11:20:47.688Z,101036.38
2023-05-22T11:24:49.213Z,101020.47
2023-05-22T11:28:53.298Z,101026.66
2023-05-22T11:32:54.812Z,101028.28
2023-05-22T11:37:00.053Z,101023.63
2023-05-22T11:41:01.554Z,101016.72
2023-05-22T11:45:04.679Z,101017.16
2023-05-22T11:49:06.586Z,101014.41
2023-05-22T11:53:08.216Z,101011.00
2023-05-22T11:57:09.895Z,100999.72
2023-05-22T12:01:11.486Z,101005.53
2023-05-22T12:05:13.936Z,100996.03
2023-05-22T12:09:15.491Z,100996.34
2023-05-22T12:13:24.982Z,101001.13
2023-05-22T12:17:28.631Z,100990.97
2023-05-22T12:21:31.547Z,100994.63
2023-05-22T12:25:37.030Z,100993.06
2023-05-22T12:29:39.629Z,100989.22
2023-05-22T12:33:41.193Z,100983.53
2023-05-22T12:37:51.748Z,100995.84
2023-05-22T12:41:53.404Z,100988.63
2023-05-22T12:45:54.946Z,100992.38
2023-05-22T12:49:56.437Z,100981.06
2023-05-22T12:53:58.995Z,100986.69
2023-05-22T12:58:00.763Z,100990.22
2023-05-22T13:02:03.287Z,100994.47
2023-05-22T13:06:04.820Z,100984.03
2023-05-22T13:10:07.381Z,100969.09
2023-05-22T13:14:08.819Z,100961.75
2023-05-22T13:18:11.752Z,100964.16
2023-05-22T13:22:14.786Z,100969.69
2023-05-22T13:26:16.270Z,100966.72
2023-05-22T13:30:17.921Z,100959.88
2023-05-22T13:34:19.572Z,100960.41
2023-05-22T13:38:21.240Z,100958.38
2023-05-22T13:42:22.792Z,100955.50
2023-05-22T13:46:24.336Z,100944.59
2023-05-22T13:50:25.847Z,100949.91
2023-05-22T13:54:27.824Z,100944.63
2023-05-22T13:58:29.314Z,100940.63
2023-05-22T14:02:30.852Z,100927.63
2023-05-22T14:06:32.530Z,100939.81
2023-05-22T14:10:35.796Z,100934.69
2023-05-22T14:14:37.275Z,100923.56
2023-05-22T14:18:41.402Z,100919.56
2023-05-22T14:22:56.031Z,100919.56
2023-05-22T14:26:58.625Z,100930.53
2023-05-22T14:31:00.157Z,100919.88
2023-05-22T14:35:01.797Z,100904.91
2023-05-22T14:39:03.290Z,100901.56
2023-05-22T14:43:04.766Z,100901.03
2023-05-22T14:47:06.329Z,100898.41
2023-05-22T14:51:07.855Z,100894.69
2023-05-22T14:55:09.688Z,100886.84
2023-05-22T14:59:14.348Z,100880.16
2023-05-22T15:03:16.767Z,100883.38
2023-05-22T15:07:19.746Z,100873.16
2023-05-22T15:11:21.941Z,100875.88
2023-05-22T15:15:23.563Z,100867.78
2023-05-22T15:19:26.175Z,100867.81
2023-05-22T15:23:27.712Z,100855.97
2023-05-22T15:27:29.238Z,100853.69
2023-05-22T15:31:31.541Z,100850.25
2023-05-22T15:35:33.032Z,100842.78
2023-05-22T15:39:34.483Z,100837.31
2023-05-22T15:43:36.095Z,100843.28
2023-05-22T15:47:37.612Z,100824.94
2023-05-22T15:51:39.152Z,100819.31
2023-05-22T15:55:40.844Z,100808.28
2023-05-22T15:59:42.578Z,100801.97
2023-05-22T16:03:44.120Z,100808.50
2023-05-22T16:07:45.758Z,100808.44
2023-05-22T16:11:47.299Z,100814.22
2023-05-22T16:15:48.837Z,100803.28
2023-05-22T16:19:51.319Z,100809.34
2023-05-22T16:23:52.848Z,100803.53
2023-05-22T16:27:54.387Z,100799.75
2023-05-22T16:31:56.825Z,100796.50
2023-05-22T16:35:58.625Z,100796.69
2023-05-22T16:40:00.183Z,100795.75
2023-05-22T16:44:01.800Z,100802.63
2023-05-22T16:48:03.399Z,100793.00
2023-05-22T16:52:05.198Z,100800.16
2023-05-22T16:56:06.915Z,100797.78
2023-05-22T17:00:10.893Z,100797.41
2023-05-22T17:04:14.828Z,100796.03
2023-05-22T17:08:16.519Z,100807.94
2023-05-22T17:12:18.114Z,100809.50
2023-05-22T17:16:19.717Z,100810.19
2023-05-22T17:20:22.972Z,100806.53
2023-05-22T17:24:24.626Z,100801.31
2023-05-22T17:28:28.888Z,100804.34
2023-05-22T17:32:30.482Z,100803.03
2023-05-22T17:36:32.653Z,100800.34
2023-05-22T17:40:44.176Z,100792.59
2023-05-22T17:44:46.654Z,100787.91
2023-05-22T17:48:48.259Z,100773.25
2023-05-22T17:52:49.743Z,100781.03
2023-05-22T17:56:51.253Z,100773.25
2023-05-22T18:00:53.130Z,100776.78
2023-05-22T18:04:54.667Z,100782.47
2023-05-22T18:08:56.157Z,100780.25
2023-05-22T18:12:57.848Z,100772.16
2023-05-22T18:16:59.524Z,100761.84
2023-05-22T18:21:02.776Z,100767.06
2023-05-22T18:25:05.781Z,100763.31
2023-05-22T18:29:07.535Z,100768.00
2023-05-22T18:33:09.115Z,100767.81
2023-05-22T18:37:10.920Z,100763.19
2023-05-22T18:41:12.658Z,100759.31
2023-05-22T18:45:14.407Z,100764.56
2023-05-22T18:49:16.205Z,100759.44
2023-05-22T18:53:18.199Z,100762.19
2023-05-22T18:57:19.678Z,100760.09
2023-05-22T19:01:21.356Z,100767.72
2023-05-22T19:05:23.054Z,100769.28
2023-05-22T19:09:24.636Z,100765.94
2023-05-22T19:13:26.591Z,100774.16
2023-05-22T19:17:28.219Z,100775.41
2023-05-22T19:21:29.860Z,100774.28
2023-05-22T19:25:32.044Z,100779.88
2023-05-22T19:29:33.638Z,100773.59
2023-05-22T19:33:35.155Z,100781.13
2023-05-22T19:37:36.958Z,100789.09
2023-05-22T19:41:38.423Z,100784.31
2023-05-22T19:45:40.313Z,100792.41
2023-05-22T19:49:41.850Z,100791.63
2023-05-22T19:53:44.264Z,100788.72
2023-05-22T19:57:45.802Z,100792.94
2023-05-22T20:01:48.170Z,100805.66
2023-05-22T20:05:53.540Z,100790.88
2023-05-22T20:09:55.059Z,100792.78
2023-05-22T20:13:56.711Z,100786.91
2023-05-22T20:17:58.278Z,100794.03
2023-05-22T20:22:00.972Z,100796.94
2023-05-22T20:26:02.802Z,100798.69
2023-05-22T20:30:04.936Z,100807.38
2023-05-22T20:34:08.041Z,100796.03
2023-05-22T20:38:09.835Z,100788.75
2023-05-22T20:42:12.964Z,100791.50
2023-05-22T20:46:14.626Z,100790.88
2023-05-22T20:50:16.217Z,100793.34
2023-05-22T20:54:18.238Z,100790.25
2023-05-22T20:58:19.931Z,100795.34
2023-05-22T21:02:21.471Z,100785.63
2023-05-22T21:06:27.011Z,100789.25
2023-05-22T21:10:28.467Z,100793.63
2023-05-22T21:14:30.351Z,100795.56
2023-05-22T21:18:31.827Z,100793.25
2023-05-22T21:22:33.263Z,100800.69
2023-05-22T21:26:36.228Z,100794.22
2023-05-22T21:30:37.895Z,100793.50
2023-05-22T21:34:39.484Z,100785.47
2023-05-22T21:38:41.134Z,100788.28
2023-05-22T21:42:47.070Z,100787.63
2023-05-22T21:46:48.921Z,100790.19
2023-05-22T21:50:50.501Z,100784.41
2023-05-22T21:54:51.995Z,100784.19
2023-05-22T21:58:53.646Z,100783.69
2023-05-22T22:02:57.231Z,100783.03
2023-05-22T22:06:58.812Z,100777.56
2023-05-22T22:11:00.408Z,100773.25
2023-05-22T22:15:02.376Z,100774.44
2023-05-22T22:19:04.713Z,100773.75
2023-05-22T22:23:06.206Z,100763.91
2023-05-22T22:27:07.799Z,100763.94
2023-05-22T22:31:09.749Z,100761.13
2023-05-22T22:35:11.405Z,100752.59
2023-05-22T22:39:12.949Z,100747.91
2023-05-22T22:43:14.449Z,100754.00
2023-05-22T22:47:15.950Z,100739.47
2023-05-22T22:51:17.543Z,100739.91
2023-05-22T22:55:19.215Z,100738.38
2023-05-22T22:59:21.040Z,100737.75
2023-05-22T23:03:22.731Z,100737.63
2023-05-22T23:07:24.251Z,100728.63
2023-05-22T23:11:28.025Z,100723.25
2023-05-22T23:15:29.856Z,100719.34
2023-05-22T23:19:31.612Z,100719.31
2023-05-22T23:23:33.262Z,100715.00
2023-05-22T23:27:34.842Z,100714.97
2023-05-22T23:31:36.657Z,100708.53
2023-05-22T23:35:38.408Z,100689.03
2023-05-22T23:39:39.977Z,100684.84
2023-05-22T23:43:42.439Z,100687.97
2023-05-22T23:47:43.900Z,100681.16
2023-05-22T23:51:45.429Z,100680.59
2023-05-22T23:55:46.926Z,100679.44
2023-05-22T23:59:48.527Z,100664.97
